aviador You're here:

CYMH Decoded Metar

MARY'S HARBOUR in NL, CANADA
Report Time2017-06-29 12:00:00
UTC Time2017-06-29 12:24:46
Flight Rules vfr VFR
WindVRB at 02 kt
Visibility9999 m
Phenomena:N/A
Clouds:Few 036 Hf
Broken 050 Hf
Overcast 065 Hf
Ceiling5,000 ft
Temp13°C (ISA -2)
Dew Point13°C (100% RH)
QNH1013 hPa
Density Alt7 ft
Elevation36 ft
Report Wrong Elevation
Raw Report
CYMH 291200Z AUTO VRB02KT 9SM FEW036 BKN050 OVC065 13/13 A2991 RMK
SLP129=

Extra information for CYMH:More info

Metar Taf Metar & Taf Last 4 Metars F.Rules Stats Wind Profile Meteogram Temp Stats Airport Information Weather charts Add Link Nearby VenuesMetar ALERT Operation Metar Decoded Social comments